createdAt,value
2019-04-02T00:00:54.424Z,62591.71
2019-04-02T00:03:20.671Z,62578.58
2019-04-02T00:05:46.916Z,62569.36
2019-04-02T00:08:13.161Z,62561.00
2019-04-02T00:10:39.383Z,62554.56
2019-04-02T00:13:05.625Z,62540.90
2019-04-02T00:15:31.886Z,62538.61
2019-04-02T00:17:58.115Z,62532.42
2019-04-02T00:20:24.347Z,62529.16
2019-04-02T00:22:50.588Z,62540.64
2019-04-02T00:25:16.813Z,62540.84
2019-04-02T00:27:43.049Z,62534.13
2019-04-02T00:33:03.598Z,62514.37
2019-04-02T00:35:29.821Z,62510.22
2019-04-02T00:37:56.046Z,62501.00
2019-04-02T00:40:22.965Z,62493.40
2019-04-02T00:42:50.435Z,62486.15
2019-04-02T00:45:16.779Z,62472.17
2019-04-02T00:47:43.011Z,62480.86
2019-04-02T00:50:09.375Z,62478.87
2019-04-02T00:52:36.301Z,62479.42
2019-04-02T00:58:04.464Z,62470.54
2019-04-02T01:00:30.712Z,62466.41
2019-04-02T01:02:56.967Z,62460.23
2019-04-02T01:05:23.229Z,62464.64
2019-04-02T01:07:49.462Z,62459.48
2019-04-02T01:10:15.712Z,62462.73
2019-04-02T01:12:41.951Z,62456.43
2019-04-02T01:15:08.305Z,62445.51
2019-04-02T01:20:41.895Z,62441.99
2019-04-02T01:23:08.126Z,62436.23
2019-04-02T01:25:34.372Z,62424.77
2019-04-02T01:28:00.629Z,62422.13
2019-04-02T01:30:26.859Z,62408.84
2019-04-02T01:32:53.099Z,62406.94
2019-04-02T01:35:19.332Z,62398.80
2019-04-02T01:37:45.566Z,62387.76
2019-04-02T01:40:11.796Z,62383.96
2019-04-02T01:42:38.052Z,62387.62
2019-04-02T01:45:45.602Z,62383.42
2019-04-02T01:48:12.242Z,62377.66
2019-04-02T01:50:39.967Z,62372.03
2019-04-02T01:53:06.206Z,62367.64
2019-04-02T01:55:32.431Z,62369.32
2019-04-02T01:58:01.534Z,62365.20
2019-04-02T02:00:26.812Z,62355.36
2019-04-02T02:02:53.056Z,62355.45
2019-04-02T02:05:19.295Z,62353.46
2019-04-02T02:07:45.540Z,62347.99
2019-04-02T02:10:11.875Z,62351.65
2019-04-02T02:12:38.116Z,62349.14
2019-04-02T02:18:18.543Z,62335.19
2019-04-02T02:20:46.222Z,62329.02
2019-04-02T02:23:12.904Z,62326.31
2019-04-02T02:25:39.144Z,62324.15
2019-04-02T02:28:05.406Z,62320.49
2019-04-02T02:30:31.651Z,62324.76
2019-04-02T02:32:57.864Z,62321.10
2019-04-02T02:35:24.089Z,62319.14
2019-04-02T02:37:50.334Z,62312.03
2019-04-02T02:40:56.060Z,62313.71
2019-04-02T02:43:22.299Z,62306.47
2019-04-02T02:45:48.526Z,62302.26
2019-04-02T02:48:16.305Z,62300.30
2019-04-02T02:50:42.896Z,62300.30
2019-04-02T02:53:09.122Z,62292.13
2019-04-02T02:55:35.358Z,62295.44
2019-04-02T02:58:01.581Z,62297.05
2019-04-02T03:00:27.933Z,62292.19
2019-04-02T03:02:54.150Z,62295.29
2019-04-02T03:05:20.389Z,62294.22
2019-04-02T03:07:46.620Z,62294.22
2019-04-02T03:10:12.857Z,62291.64
2019-04-02T03:12:39.091Z,62295.50
2019-04-02T03:15:05.423Z,62289.46
2019-04-02T03:17:31.794Z,62285.15
2019-04-02T03:19:58.036Z,62279.72
2019-04-02T03:22:24.262Z,62279.05
2019-04-02T03:24:51.421Z,62278.85
2019-04-02T03:27:18.648Z,62279.92
2019-04-02T03:29:44.878Z,62282.29
2019-04-02T03:32:11.754Z,62278.63
2019-04-02T03:34:39.288Z,62276.06
2019-04-02T03:37:06.178Z,62273.77
2019-04-02T03:39:33.651Z,62275.80
2019-04-02T03:41:59.871Z,62275.80
2019-04-02T03:44:26.117Z,62270.53
2019-04-02T03:46:52.348Z,62268.02
2019-04-02T03:49:18.574Z,62264.97
2019-04-02T03:51:46.415Z,62266.25
2019-04-02T03:54:12.949Z,62261.11
2019-04-02T03:56:39.190Z,62258.41
2019-04-02T03:59:05.419Z,62250.28
2019-04-02T04:01:31.669Z,62248.65
2019-04-02T04:03:57.930Z,62251.92
2019-04-02T04:06:24.161Z,62258.12
2019-04-02T04:08:50.398Z,62262.11
2019-04-02T04:11:16.637Z,62257.52
2019-04-02T04:13:44.368Z,62260.63
2019-04-02T04:16:11.840Z,62258.06
2019-04-02T04:18:39.167Z,62273.61
2019-04-02T04:21:05.510Z,62265.51
2019-04-02T04:23:31.732Z,62266.06
2019-04-02T04:26:01.131Z,62266.06
2019-04-02T04:28:26.106Z,62266.39
2019-04-02T04:30:52.361Z,62266.19
2019-04-02T04:33:18.604Z,62268.41
2019-04-02T04:35:44.830Z,62262.20
2019-04-02T04:38:11.830Z,62271.66
2019-04-02T04:40:39.214Z,62272.68
2019-04-02T04:43:05.484Z,62280.14
2019-04-02T04:45:31.707Z,62284.45
2019-04-02T04:47:59.451Z,62289.68
2019-04-02T04:50:26.082Z,62293.61
2019-04-02T04:52:52.323Z,62299.36
2019-04-02T04:55:18.556Z,62306.21
2019-04-02T04:57:44.803Z,62318.53
2019-04-02T05:00:55.234Z,62327.95
2019-04-02T05:03:59.965Z,62335.73
2019-04-02T05:06:26.207Z,62337.41
2019-04-02T05:08:52.444Z,62350.15
2019-04-02T05:11:18.671Z,62358.70
2019-04-02T05:13:44.906Z,62363.91
2019-04-02T05:16:11.131Z,62371.83
2019-04-02T05:18:37.380Z,62382.87
2019-04-02T05:21:03.619Z,62394.61
2019-04-02T05:23:29.978Z,62403.49
2019-04-02T05:26:03.382Z,62433.65
2019-04-02T05:28:29.624Z,62459.84
2019-04-02T05:30:55.865Z,62459.35
2019-04-02T05:33:22.080Z,62458.94
2019-04-02T05:35:48.320Z,62486.28
2019-04-02T05:38:14.541Z,62540.44
2019-04-02T05:40:40.779Z,62586.06
2019-04-02T05:43:07.003Z,62638.02
2019-04-02T05:45:33.258Z,62694.77
2019-04-02T05:47:59.485Z,62750.82
2019-04-02T05:50:25.735Z,62791.01
2019-04-02T05:52:51.960Z,62847.86
2019-04-02T05:55:18.203Z,62882.37
2019-04-02T05:57:44.429Z,62922.58
2019-04-02T06:02:45.296Z,62973.62
2019-04-02T06:05:11.531Z,63008.00
2019-04-02T06:07:37.755Z,63012.90
2019-04-02T06:10:45.287Z,62995.66
2019-04-02T06:13:11.542Z,63009.42
2019-04-02T06:15:37.783Z,63047.84
2019-04-02T06:18:04.037Z,63019.99
2019-04-02T06:20:30.276Z,63045.87
2019-04-02T06:22:56.500Z,63060.81
2019-04-02T06:25:22.743Z,63093.89
2019-04-02T06:27:48.960Z,63120.46
2019-04-02T06:30:15.554Z,63124.04
2019-04-02T06:32:42.548Z,63171.82
2019-04-02T06:38:23.754Z,63217.52
2019-04-02T06:40:49.983Z,63214.79
2019-04-02T06:43:16.227Z,63250.88
2019-04-02T06:45:42.480Z,63272.50
2019-04-02T06:48:28.471Z,63272.85
2019-04-02T06:53:42.302Z,63270.56
2019-04-02T06:56:08.535Z,63302.60
2019-04-02T06:58:34.776Z,63323.94
2019-04-02T07:03:48.611Z,63368.18
2019-04-02T07:06:14.849Z,63362.04
2019-04-02T07:08:47.032Z,63393.27
2019-04-02T07:11:09.224Z,63437.96
2019-04-02T07:13:35.491Z,63421.54
2019-04-02T07:16:01.700Z,63435.43
2019-04-02T07:18:29.118Z,63408.26
2019-04-02T07:20:58.641Z,63418.34
2019-04-02T07:23:24.220Z,63441.25
2019-04-02T07:25:50.458Z,63494.86
2019-04-02T07:28:16.709Z,63466.25
2019-04-02T07:30:42.941Z,63465.58
2019-04-02T07:33:09.183Z,63440.49
2019-04-02T07:35:35.431Z,63449.91
2019-04-02T07:38:01.681Z,63463.39
2019-04-02T07:40:27.906Z,63467.76
2019-04-02T07:42:54.153Z,63465.92
2019-04-02T07:45:20.383Z,63428.98
2019-04-02T07:47:46.623Z,63446.86
2019-04-02T07:50:12.879Z,63435.57
2019-04-02T07:52:39.107Z,63501.41
2019-04-02T07:55:46.649Z,63509.75
2019-04-02T07:58:12.905Z,63505.59
2019-04-02T08:00:39.152Z,63526.86
2019-04-02T08:03:05.371Z,63511.29
2019-04-02T08:05:31.618Z,63526.42
2019-04-02T08:07:57.844Z,63501.64
2019-04-02T08:10:24.107Z,63475.55
2019-04-02T08:12:50.352Z,63535.62
2019-04-02T08:15:18.320Z,63543.30
2019-04-02T08:17:44.755Z,63530.70
2019-04-02T08:20:11.207Z,63507.78
2019-04-02T08:22:37.443Z,63473.25
2019-04-02T08:25:27.459Z,63470.29
2019-04-02T08:27:53.374Z,63487.04
2019-04-02T08:31:00.912Z,63486.75
2019-04-02T08:33:27.155Z,63541.23
2019-04-02T08:35:53.394Z,63482.15
2019-04-02T08:38:21.074Z,63463.72
2019-04-02T08:40:47.782Z,63469.97
2019-04-02T08:43:14.010Z,63488.61
2019-04-02T08:45:40.249Z,63446.19
2019-04-02T08:48:06.476Z,63465.46
2019-04-02T08:50:32.822Z,63496.95
2019-04-02T08:52:59.058Z,63463.81
2019-04-02T08:55:25.307Z,63428.54
2019-04-02T08:57:54.786Z,63442.14
2019-04-02T09:02:57.438Z,63554.71
2019-04-02T09:05:32.874Z,63542.75
2019-04-02T09:07:51.807Z,63514.35
2019-04-02T09:10:18.045Z,63524.24
2019-04-02T09:12:44.287Z,63516.44
2019-04-02T09:15:30.277Z,63504.49
2019-04-02T09:17:56.509Z,63485.53
2019-04-02T09:20:22.745Z,63475.78
2019-04-02T09:22:50.102Z,63506.35
2019-04-02T09:25:17.119Z,63502.51
2019-04-02T09:27:43.361Z,63495.39
2019-04-02T09:30:50.898Z,63498.26
2019-04-02T09:33:17.139Z,63495.04
2019-04-02T09:35:43.466Z,63477.30
2019-04-02T09:38:09.703Z,63491.00
2019-04-02T09:40:35.933Z,63509.43
2019-04-02T09:43:02.179Z,63515.25
2019-04-02T09:45:28.405Z,63464.82
2019-04-02T09:47:54.650Z,63456.48
2019-04-02T09:50:20.883Z,63485.18
2019-04-02T09:52:47.123Z,63486.08
2019-04-02T09:55:13.554Z,63417.70
2019-04-02T09:57:39.783Z,63410.46
2019-04-02T10:03:19.725Z,63479.27
2019-04-02T10:05:45.948Z,63464.94
2019-04-02T10:08:12.187Z,63473.80
2019-04-02T10:10:38.404Z,63451.54
2019-04-02T10:13:04.646Z,63421.42
2019-04-02T10:15:30.881Z,63417.15
2019-04-02T10:17:57.119Z,63368.81
2019-04-02T10:20:23.565Z,63409.02
2019-04-02T10:22:49.803Z,63391.75
2019-04-02T10:25:16.034Z,63385.60
2019-04-02T10:27:42.268Z,63390.45
2019-04-02T10:33:22.526Z,63391.08
2019-04-02T10:35:48.751Z,63401.95
2019-04-02T10:38:14.993Z,63391.96
2019-04-02T10:40:41.224Z,63403.55
2019-04-02T10:43:07.559Z,63393.82
2019-04-02T10:46:15.084Z,63380.66
2019-04-02T10:48:41.325Z,63376.69
2019-04-02T10:51:07.554Z,63386.97
2019-04-02T10:53:33.798Z,63371.68
2019-04-02T10:56:00.028Z,63357.45
2019-04-02T10:58:32.985Z,63369.16
2019-04-02T11:00:55.236Z,63346.36
2019-04-02T11:03:22.537Z,63350.34
2019-04-02T11:05:48.774Z,63399.95
2019-04-02T11:08:17.208Z,63449.47
2019-04-02T11:10:43.162Z,63412.21
2019-04-02T11:13:11.767Z,63409.36
2019-04-02T11:15:37.527Z,63409.36
2019-04-02T11:18:03.857Z,63355.39
2019-04-02T11:20:30.099Z,63328.09
2019-04-02T11:22:56.323Z,63315.38
2019-04-02T11:25:22.574Z,63321.18
2019-04-02T11:27:48.796Z,63337.07
2019-04-02T11:30:56.348Z,63301.84
2019-04-02T11:33:22.585Z,63340.14
2019-04-02T11:35:48.827Z,63344.97
2019-04-02T11:38:15.064Z,63373.87
2019-04-02T11:40:42.083Z,63400.39
2019-04-02T11:43:09.459Z,63383.33
2019-04-02T11:45:35.707Z,63363.12
2019-04-02T11:48:01.934Z,63343.54
2019-04-02T11:50:28.184Z,63338.29
2019-04-02T11:52:54.424Z,63341.77
2019-04-02T11:55:20.666Z,63368.18
2019-04-02T11:57:46.895Z,63334.45
2019-04-02T12:00:54.430Z,63334.45
2019-04-02T12:03:20.658Z,63334.25
2019-04-02T12:05:46.892Z,63351.76
2019-04-02T12:08:15.608Z,63369.07
2019-04-02T12:10:41.273Z,63364.69
2019-04-02T12:13:07.494Z,63337.86
2019-04-02T12:15:47.815Z,63334.13
2019-04-02T12:18:01.866Z,63279.53
2019-04-02T12:20:28.086Z,63310.93
2019-04-02T12:22:54.344Z,63313.66
2019-04-02T12:25:20.570Z,63305.36
2019-04-02T12:27:46.812Z,63294.18
2019-04-02T12:33:20.499Z,63287.39
2019-04-02T12:35:46.730Z,63285.97
2019-04-02T12:38:12.980Z,63312.01
2019-04-02T12:40:40.294Z,63309.07
2019-04-02T12:43:07.352Z,63322.29
2019-04-02T12:45:33.573Z,63339.16
2019-04-02T12:47:59.835Z,63324.06
2019-04-02T12:50:26.081Z,63307.51
2019-04-02T12:52:52.334Z,63325.02
2019-04-02T12:55:18.555Z,63323.94
2019-04-02T12:57:44.801Z,63333.44
2019-04-02T13:03:24.712Z,63319.01
2019-04-02T13:05:58.365Z,63290.12
2019-04-02T13:08:19.080Z,63243.11
2019-04-02T13:10:45.306Z,63227.16
2019-04-02T13:13:11.539Z,63208.44
2019-04-02T13:15:37.767Z,63193.21
2019-04-02T13:18:04.008Z,63204.15
2019-04-02T13:20:30.244Z,63197.25
2019-04-02T13:22:56.491Z,63176.52
2019-04-02T13:25:22.715Z,63182.83
2019-04-02T13:27:48.954Z,63182.63
2019-04-02T13:33:29.107Z,63127.56
2019-04-02T13:35:55.449Z,63091.64
2019-04-02T13:38:21.706Z,63093.69
2019-04-02T13:40:47.929Z,63080.16
2019-04-02T13:43:14.168Z,63092.67
2019-04-02T13:45:40.401Z,63072.40
2019-04-02T13:48:06.623Z,63063.66
2019-04-02T13:50:32.879Z,63067.23
2019-04-02T13:52:59.095Z,63053.71
2019-04-02T13:55:25.510Z,63034.95
2019-04-02T13:57:51.765Z,63029.68
2019-04-02T14:01:00.471Z,63026.21
2019-04-02T14:03:27.487Z,63027.31
2019-04-02T14:05:54.925Z,63015.96
2019-04-02T14:08:21.887Z,63002.61
2019-04-02T14:10:48.129Z,62980.79
2019-04-02T14:13:14.356Z,62974.92
2019-04-02T14:15:40.599Z,62969.80
2019-04-02T14:18:06.829Z,62962.94
2019-04-02T14:20:33.080Z,62962.51
2019-04-02T14:22:59.304Z,62955.97
2019-04-02T14:25:25.548Z,62957.90
2019-04-02T14:27:51.776Z,62950.06
2019-04-02T14:30:17.990Z,62938.61
2019-04-02T14:32:46.067Z,62919.86
2019-04-02T14:35:12.424Z,62912.36
2019-04-02T14:37:38.647Z,62910.73
2019-04-02T14:40:46.247Z,62909.63
2019-04-02T14:43:12.464Z,62904.39
2019-04-02T14:45:39.533Z,62895.79
2019-04-02T14:48:26.611Z,62893.14
2019-04-02T14:50:54.635Z,62889.25
2019-04-02T14:53:21.190Z,62880.32
2019-04-02T14:55:47.463Z,62880.40
2019-04-02T14:58:13.665Z,62873.12
2019-04-02T15:00:40.048Z,62861.67
2019-04-02T15:03:06.268Z,62858.08
2019-04-02T15:05:32.939Z,62856.86
2019-04-02T15:07:59.187Z,62846.41
2019-04-02T15:10:25.415Z,62846.71
2019-04-02T15:12:51.667Z,62836.49
2019-04-02T15:15:17.903Z,62818.64
2019-04-02T15:17:44.150Z,62814.50
2019-04-02T15:20:10.384Z,62811.02
2019-04-02T15:22:37.760Z,62806.46
2019-04-02T15:25:04.876Z,62796.86
2019-04-02T15:27:31.117Z,62794.49
2019-04-02T15:30:00.228Z,62790.13
2019-04-02T15:32:26.471Z,62793.82
2019-04-02T15:34:52.702Z,62795.11
2019-04-02T15:37:18.961Z,62789.46
2019-04-02T15:39:45.198Z,62787.49
2019-04-02T15:42:11.438Z,62790.62
2019-04-02T15:44:37.660Z,62782.03
2019-04-02T15:47:03.907Z,62777.48
2019-04-02T15:49:30.183Z,62780.19
2019-04-02T15:51:57.657Z,62781.16
2019-04-02T15:54:24.604Z,62774.56
2019-04-02T15:56:50.834Z,62769.23
2019-04-02T15:59:18.410Z,62775.71
2019-04-02T16:04:13.782Z,62765.71
2019-04-02T16:06:41.709Z,62755.63
2019-04-02T16:09:08.235Z,62757.54
2019-04-02T16:11:34.467Z,62751.02
2019-04-02T16:14:00.718Z,62747.01
2019-04-02T16:16:26.973Z,62743.74
2019-04-02T16:18:53.245Z,62739.59
2019-04-02T16:21:19.471Z,62733.93
2019-04-02T16:23:45.740Z,62730.67
2019-04-02T16:26:13.672Z,62727.83
2019-04-02T16:28:40.307Z,62722.11
2019-04-02T16:31:06.522Z,62714.83
2019-04-02T16:33:32.768Z,62715.45
2019-04-02T16:35:58.991Z,62713.27
2019-04-02T16:38:25.244Z,62710.55
2019-04-02T16:40:52.910Z,62705.45
2019-04-02T16:43:21.205Z,62702.51
2019-04-02T16:45:47.778Z,62705.45
2019-04-02T16:48:14.000Z,62697.08
2019-04-02T16:50:40.265Z,62696.41
2019-04-02T16:53:06.493Z,62692.60
2019-04-02T16:55:32.720Z,62686.75
2019-04-02T16:57:58.963Z,62688.12
2019-04-02T17:00:25.678Z,62684.11
2019-04-02T17:02:53.326Z,62681.37
2019-04-02T17:05:19.667Z,62675.87
2019-04-02T17:07:45.892Z,62672.34
2019-04-02T17:10:12.137Z,62665.00
2019-04-02T17:12:38.363Z,62664.32
2019-04-02T17:15:45.906Z,62661.06
2019-04-02T17:18:12.143Z,62651.96
2019-04-02T17:20:40.143Z,62644.89
2019-04-02T17:23:06.522Z,62646.04
2019-04-02T17:25:32.787Z,62643.12
2019-04-02T17:27:59.020Z,62642.77
2019-04-02T17:30:25.267Z,62629.99
2019-04-02T17:32:51.504Z,62632.05
2019-04-02T17:35:17.752Z,62630.41
2019-04-02T17:37:43.976Z,62622.93
2019-04-02T17:40:51.516Z,62622.80
2019-04-02T17:43:19.834Z,62618.45
2019-04-02T17:45:45.964Z,62614.12
2019-04-02T17:48:12.207Z,62613.97
2019-04-02T17:50:38.450Z,62609.02
2019-04-02T17:53:05.535Z,62598.35
2019-04-02T17:55:32.837Z,62610.93
2019-04-02T17:57:59.057Z,62608.00
2019-04-02T18:00:25.409Z,62599.99
2019-04-02T18:02:51.655Z,62604.19
2019-04-02T18:05:17.884Z,62601.28
2019-04-02T18:07:44.129Z,62596.93
2019-04-02T18:13:17.736Z,62595.42
2019-04-02T18:15:43.984Z,62589.80
2019-04-02T18:18:11.795Z,62560.18
2019-04-02T18:20:39.616Z,62592.71
2019-04-02T18:23:06.523Z,62592.16
2019-04-02T18:25:32.775Z,62594.55
2019-04-02T18:27:59.050Z,62593.67
2019-04-02T18:30:25.290Z,62593.67
2019-04-02T18:32:51.531Z,62588.70
2019-04-02T18:35:17.797Z,62587.36
2019-04-02T18:37:44.030Z,62589.94
2019-04-02T18:40:12.326Z,62583.13
2019-04-02T18:42:40.843Z,62577.84
2019-04-02T18:45:28.223Z,62579.95
2019-04-02T18:48:36.710Z,62574.04
2019-04-02T18:51:03.065Z,62575.00
2019-04-02T18:53:29.311Z,62574.10
2019-04-02T18:55:55.542Z,62570.85
2019-04-02T18:58:21.793Z,62563.17
2019-04-02T19:00:48.026Z,62560.26
2019-04-02T19:03:14.296Z,62560.33
2019-04-02T19:05:40.524Z,62523.40
2019-04-02T19:08:06.753Z,62560.18
2019-04-02T19:10:33.004Z,62560.40
2019-04-02T19:12:59.258Z,62557.47
2019-04-02T19:15:25.644Z,62554.02
2019-04-02T19:17:53.550Z,62553.67
2019-04-02T19:20:20.064Z,62556.05
2019-04-02T19:22:46.317Z,62553.27
2019-04-02T19:25:12.550Z,62551.43
2019-04-02T19:27:40.352Z,62550.89
2019-04-02T19:30:09.635Z,62544.30
2019-04-02T19:32:35.525Z,62554.02
2019-04-02T19:35:44.774Z,62547.83
2019-04-02T19:38:11.022Z,62544.03
2019-04-02T19:40:37.251Z,62536.42
2019-04-02T19:43:07.886Z,62531.87
2019-04-02T19:45:31.635Z,62528.22
2019-04-02T19:47:58.292Z,62536.29
2019-04-02T19:50:28.079Z,62532.22
2019-04-02T19:53:07.562Z,62530.45
2019-04-02T19:55:33.950Z,62523.75
2019-04-02T19:58:00.178Z,62524.14
2019-04-02T20:00:27.643Z,62524.34
2019-04-02T20:02:54.575Z,62521.63
2019-04-02T20:05:20.829Z,62513.96
2019-04-02T20:07:47.059Z,62502.03
2019-04-02T20:10:16.206Z,62508.93
2019-04-02T20:12:41.562Z,62502.55
2019-04-02T20:15:49.119Z,62498.97
2019-04-02T20:18:17.200Z,62498.08
2019-04-02T20:20:43.525Z,62491.50
2019-04-02T20:23:09.774Z,62489.21
2019-04-02T20:25:36.012Z,62482.15
2019-04-02T20:28:02.348Z,62475.62
2019-04-02T20:30:28.594Z,62470.34
2019-04-02T20:32:54.828Z,62466.06
2019-04-02T20:35:21.071Z,62458.81
2019-04-02T20:37:47.311Z,62455.97
2019-04-02T20:40:13.658Z,62449.52
2019-04-02T20:42:39.893Z,62447.34
2019-04-02T20:45:47.445Z,62444.50
2019-04-02T20:48:13.670Z,62440.90
2019-04-02T20:50:39.949Z,62435.62
2019-04-02T20:53:15.727Z,62431.14
2019-04-02T20:55:35.904Z,62436.10
2019-04-02T20:58:02.477Z,62425.86
2019-04-02T21:00:28.725Z,62420.77
2019-04-02T21:02:57.376Z,62423.75
2019-04-02T21:05:23.086Z,62419.55
2019-04-02T21:07:49.331Z,62408.09
2019-04-02T21:10:18.646Z,62413.25
2019-04-02T21:12:45.476Z,62415.62
2019-04-02T21:18:05.583Z,62407.68
2019-04-02T21:20:31.810Z,62353.27
2019-04-02T21:22:58.057Z,62387.49
2019-04-02T21:25:24.291Z,62387.56
2019-04-02T21:27:52.120Z,62383.57
2019-04-02T21:30:18.805Z,62383.29
2019-04-02T21:32:45.049Z,62370.89
2019-04-02T21:35:12.319Z,62367.49
2019-04-02T21:37:39.531Z,62363.17
2019-04-02T21:40:47.078Z,62357.54
2019-04-02T21:43:13.313Z,62355.58
2019-04-02T21:45:39.542Z,62353.61
2019-04-02T21:48:07.193Z,62351.44
2019-04-02T21:50:33.910Z,62351.24
2019-04-02T21:53:00.154Z,62344.54
2019-04-02T21:55:26.382Z,62342.56
2019-04-02T21:57:52.623Z,62341.49
2019-04-02T22:03:06.461Z,62335.19
2019-04-02T22:05:32.693Z,62340.53
2019-04-02T22:07:58.943Z,62331.04
2019-04-02T22:10:25.178Z,62331.26
2019-04-02T22:12:51.415Z,62328.82
2019-04-02T22:15:17.652Z,62330.30
2019-04-02T22:17:44.289Z,62324.89
2019-04-02T22:23:06.031Z,62318.92
2019-04-02T22:25:32.280Z,62313.51
2019-04-02T22:27:58.528Z,62308.43
2019-04-02T22:30:24.755Z,62306.27
2019-04-02T22:32:51.819Z,62302.48
2019-04-02T22:35:19.243Z,62300.52
2019-04-02T22:37:45.603Z,62296.37
2019-04-02T22:43:05.288Z,62299.08
2019-04-02T22:45:31.535Z,62286.50
2019-04-02T22:47:57.767Z,62289.46
2019-04-02T22:50:25.353Z,62296.37
2019-04-02T22:52:52.141Z,62293.13
2019-04-02T22:55:18.534Z,62282.91
2019-04-02T22:57:44.911Z,62284.06
2019-04-02T23:03:05.639Z,62274.84
2019-04-02T23:05:32.815Z,62280.60
2019-04-02T23:08:00.050Z,62283.86
2019-04-02T23:10:26.292Z,62283.86
2019-04-02T23:12:52.522Z,62290.43
2019-04-02T23:15:18.771Z,62287.99
2019-04-02T23:17:54.899Z,62297.27
2019-04-02T23:20:14.282Z,62291.64
2019-04-02T23:22:41.310Z,62294.22
2019-04-02T23:25:07.656Z,62292.71
2019-04-02T23:27:34.008Z,62291.64
2019-04-02T23:30:00.233Z,62290.01
2019-04-02T23:32:26.460Z,62286.50
2019-04-02T23:34:52.699Z,62295.98
2019-04-02T23:37:18.930Z,62301.80
2019-04-02T23:39:45.172Z,62314.66
2019-04-02T23:42:11.402Z,62310.81
2019-04-02T23:44:37.631Z,62313.71
2019-04-02T23:47:03.921Z,62310.07
2019-04-02T23:49:30.152Z,62320.62
2019-04-02T23:51:56.382Z,62320.97
2019-04-02T23:54:22.712Z,62325.15
2019-04-02T23:56:48.988Z,62316.76
2019-04-02T23:59:15.223Z,62309.91
